createdAt,value
2023-04-06T00:00:56.557Z,9.70
2023-04-06T00:03:23.602Z,9.82
2023-04-06T00:05:50.707Z,9.75
2023-04-06T00:08:17.685Z,9.63
2023-04-06T00:10:44.577Z,10.52
2023-04-06T00:13:11.674Z,9.65
2023-04-06T00:15:38.589Z,9.70
2023-04-06T00:18:05.701Z,10.38
2023-04-06T00:20:32.741Z,8.90
2023-04-06T00:22:59.701Z,9.10
2023-04-06T00:25:26.717Z,9.60
2023-04-06T00:27:53.652Z,9.65
2023-04-06T00:30:20.774Z,9.65
2023-04-06T00:32:47.808Z,9.10
2023-04-06T00:35:16.110Z,9.68
2023-04-06T00:37:43.052Z,10.13
2023-04-06T00:40:10.806Z,9.05
2023-04-06T00:42:37.865Z,10.20
2023-04-06T00:45:05.117Z,9.10
2023-04-06T00:47:32.117Z,8.85
2023-04-06T00:49:58.986Z,8.90
2023-04-06T00:52:26.188Z,9.93
2023-04-06T00:54:53.335Z,9.93
2023-04-06T00:57:20.396Z,10.02
2023-04-06T00:59:48.074Z,9.60
2023-04-06T01:02:14.961Z,9.40
2023-04-06T01:04:41.957Z,9.73
2023-04-06T01:07:08.847Z,9.38
2023-04-06T01:09:35.792Z,9.52
2023-04-06T01:12:03.141Z,9.07
2023-04-06T01:14:30.457Z,9.15
2023-04-06T01:17:00.879Z,9.45
2023-04-06T01:19:28.554Z,8.80
2023-04-06T01:21:56.006Z,9.18
2023-04-06T01:24:23.191Z,9.43
2023-04-06T01:26:50.113Z,9.48
2023-04-06T01:29:17.005Z,8.57
2023-04-06T01:31:44.045Z,8.25
2023-04-06T01:34:11.254Z,8.65
2023-04-06T01:36:38.231Z,8.85
2023-04-06T01:39:05.159Z,9.60
2023-04-06T01:41:32.073Z,8.38
2023-04-06T01:43:59.001Z,9.00
2023-04-06T01:46:26.048Z,8.68
2023-04-06T01:48:53.232Z,8.73
2023-04-06T01:51:20.217Z,9.25
2023-04-06T01:53:47.083Z,8.82
2023-04-06T01:56:14.036Z,8.40
2023-04-06T01:58:41.069Z,10.10
2023-04-06T02:01:08.711Z,7.85
2023-04-06T02:03:35.595Z,8.23
2023-04-06T02:06:02.435Z,9.05
2023-04-06T02:08:29.303Z,8.23
2023-04-06T02:10:56.169Z,8.00
2023-04-06T02:13:23.059Z,7.93
2023-04-06T02:15:49.918Z,8.25
2023-04-06T02:18:18.710Z,8.43
2023-04-06T02:20:46.759Z,9.30
2023-04-06T02:23:13.754Z,8.38
2023-04-06T02:25:41.149Z,8.48
2023-04-06T02:28:08.212Z,7.95
2023-04-06T02:30:35.203Z,7.97
2023-04-06T02:33:02.992Z,8.68
2023-04-06T02:35:31.226Z,8.80
2023-04-06T02:37:58.092Z,7.95
2023-04-06T02:40:25.039Z,8.10
2023-04-06T02:42:51.991Z,8.23
2023-04-06T02:45:18.849Z,8.35
2023-04-06T02:47:46.369Z,8.18
2023-04-06T02:50:13.305Z,7.60
2023-04-06T02:52:40.496Z,8.13
2023-04-06T02:55:08.776Z,8.98
2023-04-06T02:57:35.778Z,7.32
2023-04-06T03:00:02.692Z,7.72
2023-04-06T03:02:29.677Z,8.25
2023-04-06T03:04:56.713Z,7.80
2023-04-06T03:07:23.690Z,7.50
2023-04-06T03:09:50.824Z,7.50
2023-04-06T03:12:17.722Z,8.80
2023-04-06T03:14:44.684Z,7.70
2023-04-06T03:17:11.539Z,8.35
2023-04-06T03:19:38.428Z,8.13
2023-04-06T03:22:05.265Z,7.75
2023-04-06T03:24:32.336Z,8.00
2023-04-06T03:26:59.200Z,7.85
2023-04-06T03:33:54.574Z,8.13
2023-04-06T03:36:21.442Z,8.07
2023-04-06T03:38:48.387Z,7.95
2023-04-06T03:41:15.256Z,7.75
2023-04-06T03:43:42.103Z,8.48
2023-04-06T03:46:08.955Z,8.23
2023-04-06T03:48:35.838Z,8.15
2023-04-06T03:51:02.885Z,8.30
2023-04-06T03:53:29.686Z,9.15
2023-04-06T03:55:56.722Z,8.98
2023-04-06T03:58:23.532Z,9.60
2023-04-06T04:00:50.576Z,12.77
2023-04-06T04:03:17.591Z,15.27
2023-04-06T04:05:44.628Z,10.00
2023-04-06T04:08:11.551Z,9.02
2023-04-06T04:10:38.411Z,8.50
2023-04-06T04:13:05.413Z,8.70
2023-04-06T04:15:32.289Z,8.85
2023-04-06T04:17:59.213Z,9.30
2023-04-06T04:20:26.229Z,8.50
2023-04-06T04:22:53.070Z,9.25
2023-04-06T04:25:19.910Z,9.50
2023-04-06T04:27:46.786Z,8.95
2023-04-06T04:30:13.710Z,9.90
2023-04-06T04:32:40.560Z,9.10
2023-04-06T04:35:07.895Z,8.60
2023-04-06T04:37:36.226Z,8.57
2023-04-06T04:40:03.694Z,8.70
2023-04-06T04:42:30.551Z,8.45
2023-04-06T04:44:57.452Z,8.93
2023-04-06T04:47:24.302Z,8.90
2023-04-06T04:49:51.248Z,10.45
2023-04-06T04:52:18.112Z,8.77
2023-04-06T04:54:45.018Z,9.40
2023-04-06T04:57:11.866Z,11.40
2023-04-06T04:59:39.008Z,11.30
2023-04-06T05:02:06.212Z,14.55
2023-04-06T05:04:33.106Z,14.43
2023-04-06T05:07:19.703Z,13.05
2023-04-06T05:09:46.675Z,11.35
2023-04-06T05:12:13.725Z,9.63
2023-04-06T05:14:40.850Z,8.52
2023-04-06T05:17:07.760Z,8.50
2023-04-06T05:19:34.674Z,7.68
2023-04-06T05:22:01.587Z,7.50
2023-04-06T05:24:28.572Z,8.25
2023-04-06T05:26:55.863Z,7.88
2023-04-06T05:29:22.865Z,6.90
2023-04-06T05:31:49.826Z,7.53
2023-04-06T05:34:16.833Z,7.68
2023-04-06T05:36:43.726Z,7.28
2023-04-06T05:39:10.986Z,7.80
2023-04-06T05:41:38.045Z,7.63
2023-04-06T05:44:04.975Z,8.15
2023-04-06T05:46:32.629Z,6.60
2023-04-06T05:48:59.598Z,7.78
2023-04-06T05:51:27.833Z,7.75
2023-04-06T05:53:54.684Z,8.20
2023-04-06T05:56:21.625Z,6.70
2023-04-06T05:58:48.539Z,7.55
2023-04-06T06:01:15.498Z,7.47
2023-04-06T06:03:42.375Z,7.43
2023-04-06T06:06:09.256Z,7.80
2023-04-06T06:08:36.169Z,7.55
2023-04-06T06:11:03.454Z,6.97
2023-04-06T06:13:30.327Z,7.05
2023-04-06T06:15:57.327Z,7.80
2023-04-06T06:18:24.209Z,7.20
2023-04-06T06:20:51.126Z,7.28
2023-04-06T06:23:17.984Z,6.90
2023-04-06T06:25:44.904Z,7.25
2023-04-06T06:28:12.038Z,6.68
2023-04-06T06:30:38.983Z,7.68
2023-04-06T06:33:05.978Z,7.43
2023-04-06T06:35:32.921Z,7.03
2023-04-06T06:37:59.809Z,6.85
2023-04-06T06:40:28.005Z,7.65
2023-04-06T06:42:55.020Z,7.07
2023-04-06T06:45:22.118Z,7.47
2023-04-06T06:47:49.451Z,7.70
2023-04-06T06:50:16.501Z,7.32
2023-04-06T06:52:43.822Z,7.05
2023-04-06T06:55:11.930Z,6.60
2023-04-06T06:57:39.421Z,6.65
2023-04-06T07:00:08.398Z,6.53
2023-04-06T07:02:36.933Z,6.85
2023-04-06T07:05:10.188Z,7.07
2023-04-06T07:07:43.455Z,6.38
2023-04-06T07:10:10.975Z,6.43
2023-04-06T07:12:37.833Z,6.72
2023-04-06T07:15:05.995Z,6.35
2023-04-06T07:17:32.907Z,6.15
2023-04-06T07:19:59.783Z,6.40
2023-04-06T07:22:26.786Z,6.50
2023-04-06T07:24:53.640Z,6.70
2023-04-06T07:27:20.552Z,7.50
2023-04-06T07:29:47.405Z,6.25
2023-04-06T07:32:14.354Z,6.68
2023-04-06T07:34:41.263Z,6.40
2023-04-06T07:37:08.210Z,8.57
2023-04-06T07:39:35.804Z,6.53
2023-04-06T07:42:02.823Z,6.28
2023-04-06T07:44:29.759Z,6.82
2023-04-06T07:46:56.653Z,7.25
2023-04-06T07:49:24.020Z,7.13
2023-04-06T07:51:51.014Z,8.05
2023-04-06T07:54:17.856Z,6.80
2023-04-06T07:56:44.783Z,6.93
2023-04-06T07:59:12.521Z,6.93
2023-04-06T08:01:39.514Z,6.78
2023-04-06T08:04:06.708Z,6.68
2023-04-06T08:06:33.857Z,7.20
2023-04-06T08:09:00.732Z,6.20
2023-04-06T08:11:27.813Z,6.90
2023-04-06T08:13:56.747Z,7.05
2023-04-06T08:16:23.982Z,6.63
2023-04-06T08:18:51.016Z,7.38
2023-04-06T08:21:17.859Z,6.30
2023-04-06T08:23:44.942Z,6.88
2023-04-06T08:26:12.175Z,6.00
2023-04-06T08:28:39.355Z,6.63
2023-04-06T08:31:06.991Z,6.18
2023-04-06T08:33:37.544Z,6.63
2023-04-06T08:36:09.540Z,5.50
2023-04-06T08:38:37.002Z,6.78
2023-04-06T08:41:11.588Z,6.78
2023-04-06T08:43:57.328Z,6.60
2023-04-06T08:46:30.753Z,6.55
2023-04-06T08:49:03.394Z,6.25
2023-04-06T08:53:59.614Z,6.07
2023-04-06T08:56:28.162Z,5.68
2023-04-06T08:58:56.253Z,6.18
2023-04-06T09:01:27.021Z,6.30
2023-04-06T09:04:08.878Z,5.78
2023-04-06T09:06:37.934Z,5.80
2023-04-06T09:09:05.282Z,5.75
2023-04-06T09:11:52.616Z,6.00
2023-04-06T09:14:38.769Z,5.43
2023-04-06T09:17:06.556Z,5.50
2023-04-06T09:19:33.611Z,5.60
2023-04-06T09:22:10.319Z,5.53
2023-04-06T09:24:53.846Z,6.05
2023-04-06T09:27:34.956Z,6.03
2023-04-06T09:30:05.458Z,6.88
2023-04-06T09:32:32.468Z,5.75
2023-04-06T09:35:09.681Z,6.03
2023-04-06T09:37:36.665Z,6.95
2023-04-06T09:40:08.235Z,6.28
2023-04-06T09:42:36.389Z,6.30
2023-04-06T09:45:04.316Z,6.43
2023-04-06T09:47:36.936Z,6.25
2023-04-06T09:50:04.725Z,5.85
2023-04-06T09:52:59.773Z,5.88
2023-04-06T09:55:40.797Z,6.28
2023-04-06T09:58:27.114Z,6.05
2023-04-06T10:01:00.591Z,7.03
2023-04-06T10:03:34.004Z,6.03
2023-04-06T10:06:07.010Z,6.07
2023-04-06T10:08:35.997Z,6.35
2023-04-06T10:11:03.788Z,6.93
2023-04-06T10:13:30.698Z,6.80
2023-04-06T10:15:58.378Z,6.18
2023-04-06T10:18:25.677Z,6.68
2023-04-06T10:21:22.970Z,6.65
2023-04-06T10:24:01.380Z,6.55
2023-04-06T10:26:28.371Z,6.70
2023-04-06T10:28:56.305Z,6.88
2023-04-06T10:31:29.906Z,6.60
2023-04-06T10:33:58.430Z,6.20
2023-04-06T10:36:27.521Z,6.28
2023-04-06T10:38:59.809Z,6.03
2023-04-06T10:41:49.145Z,5.85
2023-04-06T10:44:22.949Z,5.97
2023-04-06T10:47:03.701Z,6.65
2023-04-06T10:49:30.775Z,6.50
2023-04-06T10:51:57.936Z,5.75
2023-04-06T10:54:27.274Z,6.85
2023-04-06T10:56:54.144Z,6.45
2023-04-06T10:59:22.634Z,6.57
2023-04-06T11:01:49.972Z,6.30
2023-04-06T11:04:19.094Z,6.45
2023-04-06T11:06:50.916Z,6.38
2023-04-06T11:09:37.669Z,6.00
2023-04-06T11:12:04.764Z,5.82
2023-04-06T11:14:31.604Z,6.10
2023-04-06T11:16:58.506Z,5.78
2023-04-06T11:19:25.738Z,6.43
2023-04-06T11:21:52.760Z,7.20
2023-04-06T11:24:22.202Z,6.20
2023-04-06T11:26:59.550Z,7.78
2023-04-06T11:29:31.857Z,7.85
2023-04-06T11:32:02.994Z,7.63
2023-04-06T11:34:31.839Z,5.82
2023-04-06T11:37:01.118Z,7.57
2023-04-06T11:39:29.371Z,6.28
2023-04-06T11:42:05.059Z,7.57
2023-04-06T11:44:36.216Z,6.97
2023-04-06T11:47:04.166Z,7.15
2023-04-06T11:49:32.561Z,7.25
2023-04-06T11:52:00.453Z,6.90
2023-04-06T11:54:39.195Z,7.38
2023-04-06T11:57:06.686Z,6.97
2023-04-06T11:59:34.533Z,6.57
2023-04-06T12:02:03.865Z,6.70
2023-04-06T12:04:31.404Z,8.93
2023-04-06T12:06:58.941Z,7.13
2023-04-06T12:09:26.218Z,6.50
2023-04-06T12:11:53.207Z,6.55
2023-04-06T12:14:20.513Z,6.97
2023-04-06T12:16:47.545Z,6.68
2023-04-06T12:19:14.671Z,6.72
2023-04-06T12:21:41.669Z,7.18
2023-04-06T12:24:09.280Z,6.50
2023-04-06T12:26:38.242Z,6.00
2023-04-06T12:29:08.326Z,6.03
2023-04-06T12:31:46.129Z,5.50
2023-04-06T12:34:13.148Z,6.97
2023-04-06T12:36:40.150Z,5.60
2023-04-06T12:39:07.377Z,6.45
2023-04-06T12:41:34.387Z,6.43
2023-04-06T12:44:01.698Z,7.32
2023-04-06T12:46:30.695Z,7.35
2023-04-06T12:48:58.711Z,6.50
2023-04-06T12:51:28.694Z,10.15
2023-04-06T12:53:55.757Z,6.43
2023-04-06T12:56:23.514Z,5.75
2023-04-06T12:58:52.635Z,6.38
2023-04-06T13:01:19.853Z,6.35
2023-04-06T13:03:47.295Z,6.68
2023-04-06T13:06:15.720Z,5.95
2023-04-06T13:08:43.393Z,5.53
2023-04-06T13:11:10.706Z,6.57
2023-04-06T13:13:38.013Z,5.60
2023-04-06T13:16:07.789Z,6.20
2023-04-06T13:18:35.752Z,6.63
2023-04-06T13:21:02.583Z,6.53
2023-04-06T13:23:29.620Z,6.35
2023-04-06T13:26:00.949Z,6.22
2023-04-06T13:28:27.929Z,5.63
2023-04-06T13:30:55.746Z,5.40
2023-04-06T13:33:23.004Z,5.65
2023-04-06T13:35:49.881Z,6.85
2023-04-06T13:38:17.198Z,5.22
2023-04-06T13:40:44.225Z,6.07
2023-04-06T13:43:11.730Z,5.80
2023-04-06T13:45:39.458Z,5.40
2023-04-06T13:48:07.033Z,6.05
2023-04-06T13:50:35.106Z,5.53
2023-04-06T13:53:02.068Z,6.70
2023-04-06T13:55:28.930Z,5.00
2023-04-06T13:57:56.129Z,5.80
2023-04-06T14:00:23.308Z,5.43
2023-04-06T14:02:50.254Z,5.32
2023-04-06T14:05:17.382Z,5.65
2023-04-06T14:07:44.201Z,5.72
2023-04-06T14:10:14.864Z,5.70
2023-04-06T14:12:45.715Z,5.30
2023-04-06T14:15:13.221Z,5.55
2023-04-06T14:17:40.684Z,5.47
2023-04-06T14:20:08.081Z,5.75
2023-04-06T14:22:35.272Z,5.72
2023-04-06T14:25:02.151Z,6.22
2023-04-06T14:27:28.961Z,4.75
2023-04-06T14:29:55.922Z,5.32
2023-04-06T14:32:22.888Z,5.30
2023-04-06T14:34:49.796Z,5.20
2023-04-06T14:37:18.477Z,5.75
2023-04-06T14:39:45.528Z,4.95
2023-04-06T14:42:12.319Z,5.55
2023-04-06T14:44:43.713Z,6.13
2023-04-06T14:47:11.128Z,5.72
2023-04-06T14:49:38.209Z,6.07
2023-04-06T14:52:05.980Z,5.35
2023-04-06T14:54:32.834Z,6.72
2023-04-06T14:56:59.686Z,5.72
2023-04-06T14:59:26.582Z,4.78
2023-04-06T15:01:53.528Z,5.05
2023-04-06T15:04:20.786Z,6.22
2023-04-06T15:06:47.645Z,5.65
2023-04-06T15:09:14.469Z,5.50
2023-04-06T15:11:41.297Z,5.38
2023-04-06T15:14:08.136Z,5.15
2023-04-06T15:16:36.133Z,5.28
2023-04-06T15:19:03.142Z,5.03
2023-04-06T15:21:29.975Z,5.10
2023-04-06T15:23:57.657Z,4.75
2023-04-06T15:26:24.486Z,4.70
2023-04-06T15:28:51.410Z,4.85
2023-04-06T15:31:36.072Z,5.32
2023-04-06T15:34:04.210Z,6.35
2023-04-06T15:36:31.326Z,5.15
2023-04-06T15:38:59.232Z,5.95
2023-04-06T15:41:29.230Z,6.80
2023-04-06T15:43:56.330Z,6.53
2023-04-06T15:46:23.909Z,6.03
2023-04-06T15:48:50.866Z,5.55
2023-04-06T15:51:18.000Z,5.70
2023-04-06T15:53:45.503Z,5.72
2023-04-06T15:56:14.444Z,5.72
2023-04-06T15:58:42.282Z,5.75
2023-04-06T16:01:17.273Z,5.43
2023-04-06T16:03:44.704Z,6.00
2023-04-06T16:06:12.055Z,5.88
2023-04-06T16:08:40.866Z,6.32
2023-04-06T16:11:08.055Z,5.60
2023-04-06T16:13:36.021Z,5.90
2023-04-06T16:16:04.119Z,6.53
2023-04-06T16:18:32.544Z,6.32
2023-04-06T16:21:00.645Z,6.13
2023-04-06T16:23:27.584Z,5.63
2023-04-06T16:25:54.474Z,6.28
2023-04-06T16:28:23.276Z,6.10
2023-04-06T16:30:50.056Z,5.97
2023-04-06T16:33:19.313Z,6.00
2023-04-06T16:35:47.288Z,5.68
2023-04-06T16:38:15.147Z,5.93
2023-04-06T16:40:42.216Z,6.50
2023-04-06T16:43:10.055Z,5.75
2023-04-06T16:45:38.069Z,6.35
2023-04-06T16:48:06.109Z,5.45
2023-04-06T16:50:33.284Z,6.45
2023-04-06T16:53:00.283Z,6.60
2023-04-06T16:55:27.088Z,6.05
2023-04-06T16:57:57.071Z,5.93
2023-04-06T17:00:24.301Z,6.25
2023-04-06T17:02:51.432Z,6.07
2023-04-06T17:05:24.603Z,6.22
2023-04-06T17:07:51.710Z,5.85
2023-04-06T17:10:23.917Z,5.70
2023-04-06T17:12:59.990Z,5.70
2023-04-06T17:15:28.543Z,5.82
2023-04-06T17:17:55.540Z,6.00
2023-04-06T17:20:22.483Z,8.10
2023-04-06T17:22:49.817Z,6.55
2023-04-06T17:25:17.012Z,5.60
2023-04-06T17:27:44.222Z,6.78
2023-04-06T17:30:12.162Z,6.70
2023-04-06T17:32:39.389Z,10.18
2023-04-06T17:35:06.621Z,22.02
2023-04-06T17:37:33.427Z,21.40
2023-04-06T17:40:00.500Z,17.27
2023-04-06T17:42:27.614Z,11.98
2023-04-06T17:44:54.514Z,10.65
2023-04-06T17:47:21.391Z,9.35
2023-04-06T17:49:49.128Z,7.90
2023-04-06T17:52:16.115Z,8.52
2023-04-06T17:54:43.084Z,7.18
2023-04-06T17:57:09.984Z,7.30
2023-04-06T17:59:36.774Z,8.45
2023-04-06T18:02:04.394Z,8.73
2023-04-06T18:04:31.509Z,8.07
2023-04-06T18:06:58.586Z,7.40
2023-04-06T18:11:53.226Z,7.32
2023-04-06T18:14:20.124Z,7.60
2023-04-06T18:16:46.982Z,7.25
2023-04-06T18:19:14.541Z,7.60
2023-04-06T18:21:41.606Z,6.70
2023-04-06T18:24:12.353Z,6.78
2023-04-06T18:26:42.026Z,8.43
2023-04-06T18:29:08.939Z,7.57
2023-04-06T18:34:03.464Z,12.00
2023-04-06T18:36:31.394Z,10.43
2023-04-06T18:38:58.199Z,10.23
2023-04-06T18:41:25.020Z,10.02
2023-04-06T18:43:52.005Z,9.10
2023-04-06T18:46:22.599Z,8.88
2023-04-06T18:48:49.550Z,7.78
2023-04-06T18:51:16.397Z,7.30
2023-04-06T18:53:43.231Z,8.23
2023-04-06T18:56:15.647Z,7.40
2023-04-06T19:01:24.424Z,8.10
2023-04-06T19:03:53.703Z,9.25
2023-04-06T19:06:21.502Z,8.05
2023-04-06T19:08:48.853Z,8.93
2023-04-06T19:11:16.596Z,8.85
2023-04-06T19:16:41.055Z,9.10
2023-04-06T19:19:08.410Z,9.15
2023-04-06T19:21:35.269Z,9.07
2023-04-06T19:24:02.318Z,9.90
2023-04-06T19:26:30.539Z,9.65
2023-04-06T19:28:57.380Z,8.63
2023-04-06T19:31:24.417Z,9.13
2023-04-06T19:33:51.991Z,8.77
2023-04-06T19:36:18.893Z,8.25
2023-04-06T19:38:45.856Z,7.40
2023-04-06T19:41:12.782Z,7.43
2023-04-06T19:43:39.669Z,6.47
2023-04-06T19:46:08.906Z,7.63
2023-04-06T19:48:35.852Z,8.23
2023-04-06T19:51:02.646Z,8.43
2023-04-06T19:53:29.546Z,7.30
2023-04-06T19:55:56.352Z,7.97
2023-04-06T19:58:23.745Z,8.57
2023-04-06T20:00:50.705Z,8.30
2023-04-06T20:03:17.876Z,8.27
2023-04-06T20:05:44.978Z,8.48
2023-04-06T20:08:11.783Z,8.00
2023-04-06T20:10:38.836Z,10.20
2023-04-06T20:13:05.974Z,8.98
2023-04-06T20:15:32.765Z,9.23
2023-04-06T20:17:59.617Z,8.73
2023-04-06T20:20:26.482Z,9.35
2023-04-06T20:22:53.269Z,8.43
2023-04-06T20:25:20.111Z,8.50
2023-04-06T20:27:46.927Z,8.32
2023-04-06T20:30:15.233Z,8.38
2023-04-06T20:32:42.302Z,8.88
2023-04-06T20:35:09.516Z,9.23
2023-04-06T20:37:39.537Z,9.13
2023-04-06T20:40:06.922Z,9.13
2023-04-06T20:42:34.468Z,9.95
2023-04-06T20:45:02.815Z,9.48
2023-04-06T20:47:30.363Z,9.60
2023-04-06T20:49:57.398Z,9.63
2023-04-06T20:52:24.323Z,9.57
2023-04-06T20:54:51.127Z,9.63
2023-04-06T20:57:18.496Z,8.95
2023-04-06T20:59:45.578Z,9.70
2023-04-06T21:02:12.954Z,9.10
2023-04-06T21:04:40.336Z,9.57
2023-04-06T21:07:07.877Z,10.20
2023-04-06T21:09:39.308Z,9.93
2023-04-06T21:12:06.916Z,10.23
2023-04-06T21:14:33.918Z,9.65
2023-04-06T21:17:00.854Z,10.35
2023-04-06T21:19:27.917Z,10.23
2023-04-06T21:21:55.070Z,10.15
2023-04-06T21:24:21.955Z,9.77
2023-04-06T21:26:49.013Z,9.35
2023-04-06T21:29:15.916Z,10.55
2023-04-06T21:31:42.880Z,10.55
2023-04-06T21:34:13.582Z,9.32
2023-04-06T21:36:41.621Z,9.85
2023-04-06T21:39:09.076Z,10.40
2023-04-06T21:41:36.038Z,10.30
2023-04-06T21:44:02.925Z,10.38
2023-04-06T21:46:29.843Z,9.68
2023-04-06T21:48:57.349Z,9.77
2023-04-06T21:51:24.535Z,10.18
2023-04-06T21:53:53.102Z,9.52
2023-04-06T21:56:24.160Z,10.32
2023-04-06T21:58:52.051Z,10.65
2023-04-06T22:01:19.642Z,10.40
2023-04-06T22:03:47.199Z,10.98
2023-04-06T22:06:14.345Z,10.07
2023-04-06T22:08:41.231Z,10.70
2023-04-06T22:11:09.792Z,10.57
2023-04-06T22:13:37.462Z,9.80
2023-04-06T22:16:05.258Z,9.85
2023-04-06T22:18:32.243Z,9.52
2023-04-06T22:20:59.471Z,10.30
2023-04-06T22:23:26.313Z,9.60
2023-04-06T22:25:53.329Z,10.27
2023-04-06T22:28:20.208Z,10.23
2023-04-06T22:30:46.987Z,9.57
2023-04-06T22:33:13.943Z,9.52
2023-04-06T22:35:41.018Z,10.30
2023-04-06T22:38:08.028Z,10.40
2023-04-06T22:40:34.833Z,10.45
2023-04-06T22:43:01.623Z,10.38
2023-04-06T22:45:28.398Z,10.70
2023-04-06T22:47:55.246Z,10.68
2023-04-06T22:50:22.576Z,10.10
2023-04-06T22:52:49.546Z,10.02
2023-04-06T22:55:16.364Z,10.00
2023-04-06T22:57:43.229Z,10.82
2023-04-06T23:00:10.670Z,11.23
2023-04-06T23:02:37.797Z,10.43
2023-04-06T23:05:05.025Z,9.70
2023-04-06T23:07:32.867Z,11.13
2023-04-06T23:09:59.848Z,10.25
2023-04-06T23:12:26.783Z,10.50
2023-04-06T23:14:53.696Z,11.27
2023-04-06T23:17:20.622Z,10.45
2023-04-06T23:19:47.500Z,9.85
2023-04-06T23:22:14.326Z,10.00
2023-04-06T23:24:41.472Z,10.93
2023-04-06T23:27:08.319Z,10.10
2023-04-06T23:29:35.092Z,10.77
2023-04-06T23:32:02.055Z,10.95
2023-04-06T23:34:28.933Z,10.48
2023-04-06T23:36:55.743Z,11.52
2023-04-06T23:39:22.661Z,10.40
2023-04-06T23:41:49.510Z,11.73
2023-04-06T23:44:16.414Z,10.55
2023-04-06T23:46:43.230Z,10.70
2023-04-06T23:49:10.101Z,12.07
2023-04-06T23:51:36.889Z,11.77
2023-04-06T23:54:04.850Z,11.25
2023-04-06T23:56:31.799Z,11.43
2023-04-06T23:58:58.653Z,11.68
